Elizabeth Anne — WDI5309 — position and weather

sailwx.info

Track history (hours):
 
Tides and Currents Weather Stations Pressure Air Temp Water Temp Dewpoint Dewpoint Depression Visibility Wind Speed Wind Dir Waves Ship Positions

Elizabeth Anne

Owner: Vane Line Bunkering, Inc., Philadelphia, PA. More information available from US FCC via Universal Licensing System and Coast Guard Vessel Documentation Center.

Last reported at 2017-Oct-18 02:00 UTC. Time now 2017-Oct-18 02:03 UTC.
Position N 38°55' W 075°05'.

; draft 5 m.

Type: Tug. MMSI: 369008000.

Date/timePositionNaut miles runAvg speedWind from/ knotsBaromVisibWave heightAir tempDewpointWater temp
2017-Oct-18 02:00N 38°55' W 075°05'4 5.8
2017-Oct-18 01:22N 38°52' W 075°03'57 6.2
2017-Oct-17 16:14N 39°29' W 074°07'3 7.2
2017-Oct-17 15:51N 39°31' W 074°06'3 7.2
2017-Oct-17 15:29N 39°34' W 074°04'3 7.2
2017-Oct-17 15:00N 39°37' W 074°03'4 7.2
2017-Oct-17 14:30N 39°40' W 074°01'4 7.2
2017-Oct-17 14:00N 39°44' W 073°60'4 7.1
2017-Oct-17 13:30N 39°47' W 073°59'4 6.9
2017-Oct-17 12:59N 39°51' W 073°58'12 7.0
2017-Oct-17 11:19N 40°02' W 073°58'2 6.9
2017-Oct-17 11:00N 40°05' W 073°58'24 6.8
2017-Oct-17 07:23N 40°29' W 073°54'3 5.7
2017-Oct-17 06:54N 40°30' W 073°57'2 5.4
2017-Oct-17 06:30N 40°31' W 074°00'3 6.3
2017-Oct-17 06:00N 40°34' W 074°02'1 2.4
2017-Oct-17 05:30N 40°35' W 074°02'3 6.2
2017-Oct-17 05:01N 40°38' W 074°04'2 4.8
2017-Oct-17 04:30N 40°39' W 074°07'0 0.1
2017-Oct-17 04:00N 40°39' W 074°07'3 5.2
2017-Oct-17 03:30N 40°39' W 074°03'2 4.7
2017-Oct-17 03:00N 40°40' W 074°00'0 0.0
2017-Oct-17 02:30N 40°40' W 074°00'0 0.0
2017-Oct-17 02:00N 40°40' W 074°00'0 0.0
2017-Oct-17 01:30N 40°40' W 074°00'0 0.0
2017-Oct-17 01:00N 40°40' W 074°00'0 0.0
2017-Oct-17 00:30N 40°40' W 074°00'0 0.0
2017-Oct-17 00:00N 40°40' W 074°00'0 0.0
2017-Oct-16 23:30N 40°40' W 074°00'0 0.0
2017-Oct-16 23:00N 40°40' W 074°00'0 0.0
2017-Oct-16 22:30N 40°40' W 074°00'0 0.0
2017-Oct-16 22:00N 40°40' W 074°00'0 0.0
2017-Oct-16 21:30N 40°40' W 074°00'0 0.0
2017-Oct-16 21:00N 40°40' W 074°00'0 0.0
2017-Oct-16 20:30N 40°40' W 074°00'0 0.0
2017-Oct-16 20:00N 40°40' W 074°00'0 0.0
2017-Oct-16 19:30N 40°40' W 074°00'0 0.0
2017-Oct-16 19:00N 40°40' W 074°00'0 0.0
2017-Oct-16 18:30N 40°40' W 074°00'0 0.0
2017-Oct-16 18:00N 40°40' W 074°00'0 0.1
2017-Oct-16 17:31N 40°40' W 074°01'0 0.0
2017-Oct-16 17:00N 40°40' W 074°01'0 0.1
2017-Oct-16 16:30N 40°40' W 074°00'0 0.0
2017-Oct-16 16:00N 40°40' W 074°00'0 0.0
2017-Oct-16 15:30N 40°40' W 074°00'0 0.0
2017-Oct-16 15:00N 40°40' W 074°00'0 0.0
2017-Oct-16 14:30N 40°40' W 074°00'0 0.0
2017-Oct-16 13:30N 40°40' W 074°00'0 0.0
2017-Oct-16 13:00N 40°40' W 074°00'0 0.0
2017-Oct-16 12:30N 40°40' W 074°00'0 0.0
2017-Oct-16 12:00N 40°40' W 074°00'0 0.5
2017-Oct-16 11:30N 40°40' W 074°00'0 0.0
2017-Oct-16 11:00N 40°40' W 074°00'0 0.0
2017-Oct-16 10:30N 40°40' W 074°00'0 0.0
2017-Oct-16 10:00N 40°40' W 074°00'0 0.0
2017-Oct-16 09:30N 40°40' W 074°00'0 0.0
2017-Oct-16 09:00N 40°40' W 074°00'0 0.0
2017-Oct-16 08:30N 40°40' W 074°00'0 0.0
2017-Oct-16 08:00N 40°40' W 074°00'0 0.0
2017-Oct-16 07:31N 40°40' W 074°00'4 7.8
2017-Oct-16 07:00N 40°39' W 074°05'1 2.2
2017-Oct-16 06:30N 40°39' W 074°07'0 0.1
2017-Oct-16 06:00N 40°39' W 074°07'0 0.1
2017-Oct-16 05:30N 40°39' W 074°07'1 2.7
2017-Oct-16 05:00N 40°39' W 074°05'1 2.6
2017-Oct-16 04:30N 40°39' W 074°07'0 0.1
2017-Oct-16 04:00N 40°39' W 074°07'2 5.0
2017-Oct-16 03:30N 40°39' W 074°03'1 1.1
2017-Oct-16 03:00N 40°38' W 074°03'0 0.2
2017-Oct-16 02:30N 40°39' W 074°03'0 0.1
2017-Oct-16 02:00N 40°39' W 074°03'0 0.1
2017-Oct-16 01:30N 40°39' W 074°03'2 4.7
2017-Oct-16 01:01N 40°41' W 074°01'4 8.3
2017-Oct-16 00:30N 40°44' W 073°58'5 9.0
2017-Oct-16 00:00N 40°48' W 073°55'4 8.8
2017-Oct-15 23:30N 40°48' W 073°49'2 3.1
2017-Oct-15 22:59N 40°49' W 073°47'1 2.9
2017-Oct-15 22:30N 40°50' W 073°46'51 8.9
2017-Oct-15 16:43N 41°06' W 072°42'2 8.3
2017-Oct-15 16:30N 41°07' W 072°39'4 7.9
2017-Oct-15 16:00N 41°08' W 072°34'4 7.7
2017-Oct-15 15:30N 41°09' W 072°30'4 7.6
2017-Oct-15 15:00N 41°10' W 072°25'8 7.4
2017-Oct-15 13:59N 41°12' W 072°15'4 8.2
2017-Oct-15 13:30N 41°13' W 072°10'87 8.1
2017-Oct-15 02:48N 41°48' W 070°24'30 5.8
2017-Oct-14 21:36N 42°16' W 070°41'1 8.7
2017-Oct-14 21:30N 42°16' W 070°41'4 8.7
2017-Oct-14 21:00N 42°19' W 070°46'4 8.8
2017-Oct-14 20:31N 42°22' W 070°50'4 7.6
2017-Oct-14 20:01N 42°22' W 070°55'3 6.1
2017-Oct-14 19:31N 42°20' W 070°58'2 4.4
2017-Oct-14 19:00N 42°21' W 071°01'3 5.3
2017-Oct-14 18:30N 42°23' W 071°03'0 0.2
2017-Oct-14 18:00N 42°23' W 071°03'0 0.1
2017-Oct-14 17:30N 42°23' W 071°03'0 0.0
2017-Oct-14 17:00N 42°23' W 071°03'0 0.0
2017-Oct-14 16:30N 42°23' W 071°03'0 0.0
2017-Oct-14 16:00N 42°23' W 071°03'0 0.0
2017-Oct-14 15:30N 42°23' W 071°03'0 0.0
2017-Oct-14 15:00N 42°23' W 071°03'0 0.0
2017-Oct-14 14:30N 42°23' W 071°03'0 0.0
2017-Oct-14 14:00N 42°23' W 071°03'0 0.0
2017-Oct-14 13:30N 42°23' W 071°03'0 0.0
2017-Oct-14 13:00N 42°23' W 071°03'0 0.0
2017-Oct-14 12:30N 42°23' W 071°03'0 0.0
2017-Oct-14 12:00N 42°23' W 071°03'0 0.0
2017-Oct-14 11:30N 42°23' W 071°03'0 0.0
2017-Oct-14 11:00N 42°23' W 071°03'0 0.0
2017-Oct-14 10:30N 42°23' W 071°03'0 0.0
2017-Oct-14 10:00N 42°23' W 071°03'0 0.0
2017-Oct-14 09:30N 42°23' W 071°03'0 0.0
2017-Oct-14 09:00N 42°23' W 071°03'0 0.0
2017-Oct-14 08:30N 42°23' W 071°03'0 0.0
2017-Oct-14 08:00N 42°23' W 071°03'0 0.0
2017-Oct-14 07:30N 42°23' W 071°03'0 0.0
2017-Oct-14 07:00N 42°23' W 071°03'0 0.0
2017-Oct-14 06:30N 42°23' W 071°03'0 0.0
2017-Oct-14 06:00N 42°23' W 071°03'0 0.0
2017-Oct-14 05:30N 42°23' W 071°03'0 0.0
2017-Oct-14 05:00N 42°23' W 071°03'0 0.0
2017-Oct-14 04:30N 42°23' W 071°03'0 0.0
2017-Oct-14 04:00N 42°23' W 071°03'0 0.0
2017-Oct-14 03:30N 42°23' W 071°03'0 0.0
2017-Oct-14 03:00N 42°23' W 071°03'0 0.0
2017-Oct-14 02:30N 42°23' W 071°03'0 0.0
2017-Oct-14 02:00N 42°23' W 071°03'0 0.0
2017-Oct-14 01:30N 42°23' W 071°03'2 3.6
2017-Oct-14 00:58N 42°21' W 071°02'3 6.0
2017-Oct-14 00:29N 42°20' W 070°58'1 1.5
2017-Oct-14 00:00N 42°20' W 070°57'2 4.1
2017-Oct-13 23:30N 42°22' W 070°55'3 6.2
2017-Oct-13 23:01N 42°23' W 070°52'3 6.3
2017-Oct-13 22:30N 42°21' W 070°48'3 6.5
2017-Oct-13 22:00N 42°19' W 070°45'3 6.6
2017-Oct-13 21:30N 42°17' W 070°42'3 6.7
2017-Oct-13 21:00N 42°14' W 070°39'3 6.6
2017-Oct-13 20:30N 42°11' W 070°36'95 3.4
2017-Oct-12 16:44N 41°12' W 072°16'1 5.3
2017-Oct-12 16:28N 41°11' W 072°18'2 5.5
2017-Oct-12 16:00N 41°11' W 072°21'3 5.9
2017-Oct-12 15:30N 41°10' W 072°25'3 5.9
2017-Oct-12 15:00N 41°09' W 072°29'3 6.0
2017-Oct-12 14:30N 41°08' W 072°33'3 6.2
2017-Oct-12 13:59N 41°07' W 072°37'3 6.3
2017-Oct-12 13:30N 41°07' W 072°41'3 6.3
2017-Oct-12 13:00N 41°06' W 072°45'49 5.3
2017-Oct-12 03:41N 40°50' W 073°46'0 0.8
2017-Oct-12 03:25N 40°50' W 073°46'2 4.2
2017-Oct-12 03:00N 40°48' W 073°47'3 5.3
2017-Oct-12 02:30N 40°48' W 073°50'3 5.3
2017-Oct-12 02:00N 40°48' W 073°54'3 5.7
2017-Oct-12 01:30N 40°46' W 073°57'1 2.5
2017-Oct-12 00:59N 40°45' W 073°58'2 4.5
2017-Oct-12 00:30N 40°43' W 073°58'2 3.6
2017-Oct-12 00:00N 40°42' W 074°00'2 4.3
2017-Oct-11 23:30N 40°40' W 074°02'1 1.1
2017-Oct-11 23:00N 40°40' W 074°02'0 0.0
2017-Oct-11 22:30N 40°40' W 074°02'0 0.0
2017-Oct-11 22:00N 40°40' W 074°02'0 0.0
2017-Oct-11 21:30N 40°40' W 074°02'0 0.0
2017-Oct-11 21:00N 40°40' W 074°02'0 0.0
2017-Oct-11 20:30N 40°40' W 074°02'0 0.2
2017-Oct-11 20:00N 40°40' W 074°02'2 3.1
2017-Oct-11 19:30N 40°39' W 074°04'1 2.0
2017-Oct-11 19:00N 40°39' W 074°05'1 1.3
2017-Oct-11 18:30N 40°39' W 074°06'0 0.2
2017-Oct-11 18:00N 40°39' W 074°06'0 0.0
2017-Oct-11 17:30N 40°39' W 074°06'0 0.0
2017-Oct-11 17:00N 40°39' W 074°06'3 0.2
2017-Oct-11 00:00N 40°40' W 074°02'0 0.4
2017-Oct-10 23:30N 40°40' W 074°02'3 5.6
2017-Oct-10 23:00N 40°43' W 074°01'4 7.7
2017-Oct-10 22:30N 40°47' W 073°60'1 1.2
2017-Oct-10 22:00N 40°47' W 073°60'0 0.2
2017-Oct-10 21:30N 40°47' W 073°59'0 0.0
2017-Oct-10 21:00N 40°47' W 073°59'0 0.0
2017-Oct-10 20:30N 40°47' W 073°59'2 3.9
2017-Oct-10 20:00N 40°46' W 074°01'4 7.1
2017-Oct-10 19:31N 40°42' W 074°01'4 7.1
2017-Oct-10 19:01N 40°45' W 073°58'4 8.9
2017-Oct-10 18:31N 40°48' W 073°54'4 7.5
2017-Oct-10 18:00N 40°48' W 073°49'56 6.0
2017-Oct-10 08:33N 41°07' W 072°38'0 5.1
2017-Oct-10 08:31N 41°07' W 072°38'3 5.1
2017-Oct-10 08:00N 41°07' W 072°35'3 5.2
2017-Oct-10 07:31N 41°08' W 072°32'3 5.8
2017-Oct-10 07:01N 41°09' W 072°28'3 6.1
2017-Oct-10 06:31N 41°10' W 072°24'2 3.1
2017-Oct-10 06:01N 41°09' W 072°25'3 5.0
2017-Oct-10 05:31N 41°08' W 072°28'2 5.0
2017-Oct-10 05:01N 41°06' W 072°31'2 4.7
2017-Oct-10 04:30N 41°05' W 072°34'2 4.6
2017-Oct-10 03:59N 41°04' W 072°37'3 4.8
2017-Oct-10 03:22N 41°03' W 072°40'52 3.5
2017-Oct-09 12:17N 40°49' W 073°47'2 5.9
2017-Oct-09 11:56N 40°48' W 073°50'3 8.0
2017-Oct-09 11:30N 40°48' W 073°54'4 7.7
2017-Oct-09 11:01N 40°45' W 073°57'3 6.4
2017-Oct-09 10:31N 40°42' W 073°59'3 6.4
2017-Oct-09 10:01N 40°40' W 074°02'2 4.8
2017-Oct-09 09:31N 40°39' W 074°05'0 0.2
2017-Oct-09 09:01N 40°39' W 074°05'0 0.1
2017-Oct-09 08:31N 40°39' W 074°05'1 1.5
2017-Oct-09 08:00N 40°39' W 074°06'0 0.0
2017-Oct-09 07:30N 40°39' W 074°06'0 0.0
2017-Oct-09 07:01N 40°39' W 074°06'0 0.0
2017-Oct-09 06:30N 40°39' W 074°06'0 0.0
2017-Oct-09 06:00N 40°39' W 074°06'0 0.0
2017-Oct-09 05:31N 40°39' W 074°06'0 0.0
2017-Oct-09 05:01N 40°39' W 074°06'0 0.0
2017-Oct-09 04:30N 40°39' W 074°06'0 0.0
2017-Oct-09 04:00N 40°39' W 074°06'0 0.0
2017-Oct-09 03:31N 40°39' W 074°06'0 0.0
2017-Oct-09 03:00N 40°39' W 074°06'0 0.0
2017-Oct-09 02:31N 40°39' W 074°06'0 0.0
2017-Oct-09 02:01N 40°39' W 074°06'0 0.0
2017-Oct-09 01:31N 40°39' W 074°06'0 0.0
2017-Oct-09 01:01N 40°39' W 074°06'0 0.0
2017-Oct-09 00:31N 40°39' W 074°06'0 0.0
2017-Oct-09 00:00N 40°39' W 074°06'0 0.0
2017-Oct-08 23:31N 40°39' W 074°06'0 0.0
2017-Oct-08 23:01N 40°39' W 074°06'0 0.0
2017-Oct-08 22:31N 40°39' W 074°06'1 1.4
2017-Oct-08 22:00N 40°39' W 074°05'0 0.3
2017-Oct-08 21:31N 40°39' W 074°05'1 2.6
2017-Oct-08 21:00N 40°39' W 074°07'0 0.2
2017-Oct-08 20:30N 40°39' W 074°06'1 1.1
2017-Oct-08 20:00N 40°39' W 074°06'0 0.0
2017-Oct-08 19:30N 40°39' W 074°06'0 0.0
2017-Oct-08 19:00N 40°39' W 074°06'2 3.7
2017-Oct-08 18:30N 40°39' W 074°03'3 5.6
2017-Oct-08 18:01N 40°40' W 074°00'0 0.0
2017-Oct-08 17:31N 40°40' W 074°00'0 0.0
2017-Oct-08 17:01N 40°40' W 074°00'0 0.0
2017-Oct-08 16:30N 40°40' W 074°00'0 0.0
2017-Oct-08 16:01N 40°40' W 074°00'0 0.0
2017-Oct-08 15:30N 40°40' W 074°00'0 0.0
2017-Oct-08 15:00N 40°40' W 074°00'0 0.0
2017-Oct-08 14:30N 40°40' W 074°00'0 0.0
2017-Oct-08 14:00N 40°40' W 074°00'0 0.6
2017-Oct-08 13:30N 40°40' W 074°00'0 0.9
2017-Oct-08 13:00N 40°40' W 074°01'0 0.0
2017-Oct-08 12:30N 40°40' W 074°01'4 7.6
2017-Oct-08 12:00N 40°39' W 074°06'0 0.1
2017-Oct-08 11:30N 40°39' W 074°06'0 0.0
2017-Oct-08 11:00N 40°39' W 074°06'0 0.0
2017-Oct-08 10:29N 40°39' W 074°06'0 0.0
2017-Oct-08 10:00N 40°39' W 074°06'0 0.0
2017-Oct-08 09:30N 40°39' W 074°06'0 0.0
2017-Oct-08 09:00N 40°39' W 074°06'0 0.0
2017-Oct-08 08:31N 40°39' W 074°06'0 0.0
2017-Oct-08 08:00N 40°39' W 074°06'0 0.0
2017-Oct-08 07:30N 40°39' W 074°06'0 0.0
2017-Oct-08 07:00N 40°39' W 074°06'0 0.0
2017-Oct-08 06:30N 40°39' W 074°06'0 0.0
2017-Oct-08 06:00N 40°39' W 074°06'0 0.0
2017-Oct-08 05:30N 40°39' W 074°06'0 0.0
2017-Oct-08 05:00N 40°39' W 074°06'0 0.0
2017-Oct-08 04:30N 40°39' W 074°06'0 0.0
2017-Oct-08 04:01N 40°39' W 074°06'0 0.0
2017-Oct-08 03:30N 40°39' W 074°06'0 0.0
2017-Oct-08 03:00N 40°39' W 074°06'0 0.0
2017-Oct-08 02:30N 40°39' W 074°06'0 0.0
2017-Oct-08 02:01N 40°39' W 074°06'  
Track history (hours):
 
Tides and Currents Weather Stations Pressure Air Temp Water Temp Dewpoint Dewpoint Depression Visibility Wind Speed Wind Dir Waves Ship Positions

Elizabeth Anne

Owner: Vane Line Bunkering, Inc., Philadelphia, PA. More information available from US FCC via Universal Licensing System and Coast Guard Vessel Documentation Center.

Last reported at 2017-Oct-18 02:00 UTC. Time now 2017-Oct-18 02:03 UTC.
Position N 38°55' W 075°05'.

; draft 5 m.

Type: Tug. MMSI: 369008000.

Date/timePositionNaut miles runAvg speedWind from/ knotsBaromVisibWave heightAir tempDewpointWater temp
2017-Oct-18 02:00N 38°55' W 075°05'4 5.8
2017-Oct-18 01:22N 38°52' W 075°03'57 6.2
2017-Oct-17 16:14N 39°29' W 074°07'3 7.2
2017-Oct-17 15:51N 39°31' W 074°06'3 7.2
2017-Oct-17 15:29N 39°34' W 074°04'3 7.2
2017-Oct-17 15:00N 39°37' W 074°03'4 7.2
2017-Oct-17 14:30N 39°40' W 074°01'4 7.2
2017-Oct-17 14:00N 39°44' W 073°60'4 7.1
2017-Oct-17 13:30N 39°47' W 073°59'4 6.9
2017-Oct-17 12:59N 39°51' W 073°58'12 7.0
2017-Oct-17 11:19N 40°02' W 073°58'2 6.9
2017-Oct-17 11:00N 40°05' W 073°58'24 6.8
2017-Oct-17 07:23N 40°29' W 073°54'3 5.7
2017-Oct-17 06:54N 40°30' W 073°57'2 5.4
2017-Oct-17 06:30N 40°31' W 074°00'3 6.3
2017-Oct-17 06:00N 40°34' W 074°02'1 2.4
2017-Oct-17 05:30N 40°35' W 074°02'3 6.2
2017-Oct-17 05:01N 40°38' W 074°04'2 4.8
2017-Oct-17 04:30N 40°39' W 074°07'0 0.1
2017-Oct-17 04:00N 40°39' W 074°07'3 5.2
2017-Oct-17 03:30N 40°39' W 074°03'2 4.7
2017-Oct-17 03:00N 40°40' W 074°00'0 0.0
2017-Oct-17 02:30N 40°40' W 074°00'0 0.0
2017-Oct-17 02:00N 40°40' W 074°00'0 0.0
2017-Oct-17 01:30N 40°40' W 074°00'0 0.0
2017-Oct-17 01:00N 40°40' W 074°00'0 0.0
2017-Oct-17 00:30N 40°40' W 074°00'0 0.0
2017-Oct-17 00:00N 40°40' W 074°00'0 0.0
2017-Oct-16 23:30N 40°40' W 074°00'0 0.0
2017-Oct-16 23:00N 40°40' W 074°00'0 0.0
2017-Oct-16 22:30N 40°40' W 074°00'0 0.0
2017-Oct-16 22:00N 40°40' W 074°00'0 0.0
2017-Oct-16 21:30N 40°40' W 074°00'0 0.0
2017-Oct-16 21:00N 40°40' W 074°00'0 0.0
2017-Oct-16 20:30N 40°40' W 074°00'0 0.0
2017-Oct-16 20:00N 40°40' W 074°00'0 0.0
2017-Oct-16 19:30N 40°40' W 074°00'0 0.0
2017-Oct-16 19:00N 40°40' W 074°00'0 0.0
2017-Oct-16 18:30N 40°40' W 074°00'0 0.0
2017-Oct-16 18:00N 40°40' W 074°00'0 0.1
2017-Oct-16 17:31N 40°40' W 074°01'0 0.0
2017-Oct-16 17:00N 40°40' W 074°01'0 0.1
2017-Oct-16 16:30N 40°40' W 074°00'0 0.0
2017-Oct-16 16:00N 40°40' W 074°00'0 0.0
2017-Oct-16 15:30N 40°40' W 074°00'0 0.0
2017-Oct-16 15:00N 40°40' W 074°00'0 0.0
2017-Oct-16 14:30N 40°40' W 074°00'0 0.0
2017-Oct-16 13:30N 40°40' W 074°00'0 0.0
2017-Oct-16 13:00N 40°40' W 074°00'0 0.0
2017-Oct-16 12:30N 40°40' W 074°00'0 0.0
2017-Oct-16 12:00N 40°40' W 074°00'0 0.5
2017-Oct-16 11:30N 40°40' W 074°00'0 0.0
2017-Oct-16 11:00N 40°40' W 074°00'0 0.0
2017-Oct-16 10:30N 40°40' W 074°00'0 0.0
2017-Oct-16 10:00N 40°40' W 074°00'0 0.0
2017-Oct-16 09:30N 40°40' W 074°00'0 0.0
2017-Oct-16 09:00N 40°40' W 074°00'0 0.0
2017-Oct-16 08:30N 40°40' W 074°00'0 0.0
2017-Oct-16 08:00N 40°40' W 074°00'0 0.0
2017-Oct-16 07:31N 40°40' W 074°00'4 7.8
2017-Oct-16 07:00N 40°39' W 074°05'1 2.2
2017-Oct-16 06:30N 40°39' W 074°07'0 0.1
2017-Oct-16 06:00N 40°39' W 074°07'0 0.1
2017-Oct-16 05:30N 40°39' W 074°07'1 2.7
2017-Oct-16 05:00N 40°39' W 074°05'1 2.6
2017-Oct-16 04:30N 40°39' W 074°07'0 0.1
2017-Oct-16 04:00N 40°39' W 074°07'2 5.0
2017-Oct-16 03:30N 40°39' W 074°03'1 1.1
2017-Oct-16 03:00N 40°38' W 074°03'0 0.2
2017-Oct-16 02:30N 40°39' W 074°03'0 0.1
2017-Oct-16 02:00N 40°39' W 074°03'0 0.1
2017-Oct-16 01:30N 40°39' W 074°03'2 4.7
2017-Oct-16 01:01N 40°41' W 074°01'4 8.3
2017-Oct-16 00:30N 40°44' W 073°58'5 9.0
2017-Oct-16 00:00N 40°48' W 073°55'4 8.8
2017-Oct-15 23:30N 40°48' W 073°49'2 3.1
2017-Oct-15 22:59N 40°49' W 073°47'1 2.9
2017-Oct-15 22:30N 40°50' W 073°46'51 8.9
2017-Oct-15 16:43N 41°06' W 072°42'2 8.3
2017-Oct-15 16:30N 41°07' W 072°39'4 7.9
2017-Oct-15 16:00N 41°08' W 072°34'4 7.7
2017-Oct-15 15:30N 41°09' W 072°30'4 7.6
2017-Oct-15 15:00N 41°10' W 072°25'8 7.4
2017-Oct-15 13:59N 41°12' W 072°15'4 8.2
2017-Oct-15 13:30N 41°13' W 072°10'87 8.1
2017-Oct-15 02:48N 41°48' W 070°24'30 5.8
2017-Oct-14 21:36N 42°16' W 070°41'1 8.7
2017-Oct-14 21:30N 42°16' W 070°41'4 8.7
2017-Oct-14 21:00N 42°19' W 070°46'4 8.8
2017-Oct-14 20:31N 42°22' W 070°50'4 7.6
2017-Oct-14 20:01N 42°22' W 070°55'3 6.1
2017-Oct-14 19:31N 42°20' W 070°58'2 4.4
2017-Oct-14 19:00N 42°21' W 071°01'3 5.3
2017-Oct-14 18:30N 42°23' W 071°03'0 0.2
2017-Oct-14 18:00N 42°23' W 071°03'0 0.1
2017-Oct-14 17:30N 42°23' W 071°03'0 0.0
2017-Oct-14 17:00N 42°23' W 071°03'0 0.0
2017-Oct-14 16:30N 42°23' W 071°03'0 0.0
2017-Oct-14 16:00N 42°23' W 071°03'0 0.0
2017-Oct-14 15:30N 42°23' W 071°03'0 0.0
2017-Oct-14 15:00N 42°23' W 071°03'0 0.0
2017-Oct-14 14:30N 42°23' W 071°03'0 0.0
2017-Oct-14 14:00N 42°23' W 071°03'0 0.0
2017-Oct-14 13:30N 42°23' W 071°03'0 0.0
2017-Oct-14 13:00N 42°23' W 071°03'0 0.0
2017-Oct-14 12:30N 42°23' W 071°03'0 0.0
2017-Oct-14 12:00N 42°23' W 071°03'0 0.0
2017-Oct-14 11:30N 42°23' W 071°03'0 0.0
2017-Oct-14 11:00N 42°23' W 071°03'0 0.0
2017-Oct-14 10:30N 42°23' W 071°03'0 0.0
2017-Oct-14 10:00N 42°23' W 071°03'0 0.0
2017-Oct-14 09:30N 42°23' W 071°03'0 0.0
2017-Oct-14 09:00N 42°23' W 071°03'0 0.0
2017-Oct-14 08:30N 42°23' W 071°03'0 0.0
2017-Oct-14 08:00N 42°23' W 071°03'0 0.0
2017-Oct-14 07:30N 42°23' W 071°03'0 0.0
2017-Oct-14 07:00N 42°23' W 071°03'0 0.0
2017-Oct-14 06:30N 42°23' W 071°03'0 0.0
2017-Oct-14 06:00N 42°23' W 071°03'0 0.0
2017-Oct-14 05:30N 42°23' W 071°03'0 0.0
2017-Oct-14 05:00N 42°23' W 071°03'0 0.0
2017-Oct-14 04:30N 42°23' W 071°03'0 0.0
2017-Oct-14 04:00N 42°23' W 071°03'0 0.0
2017-Oct-14 03:30N 42°23' W 071°03'0 0.0
2017-Oct-14 03:00N 42°23' W 071°03'0 0.0
2017-Oct-14 02:30N 42°23' W 071°03'0 0.0
2017-Oct-14 02:00N 42°23' W 071°03'0 0.0
2017-Oct-14 01:30N 42°23' W 071°03'2 3.6
2017-Oct-14 00:58N 42°21' W 071°02'3 6.0
2017-Oct-14 00:29N 42°20' W 070°58'1 1.5
2017-Oct-14 00:00N 42°20' W 070°57'2 4.1
2017-Oct-13 23:30N 42°22' W 070°55'3 6.2
2017-Oct-13 23:01N 42°23' W 070°52'3 6.3
2017-Oct-13 22:30N 42°21' W 070°48'3 6.5
2017-Oct-13 22:00N 42°19' W 070°45'3 6.6
2017-Oct-13 21:30N 42°17' W 070°42'3 6.7
2017-Oct-13 21:00N 42°14' W 070°39'3 6.6
2017-Oct-13 20:30N 42°11' W 070°36'95 3.4
2017-Oct-12 16:44N 41°12' W 072°16'1 5.3
2017-Oct-12 16:28N 41°11' W 072°18'2 5.5
2017-Oct-12 16:00N 41°11' W 072°21'3 5.9
2017-Oct-12 15:30N 41°10' W 072°25'3 5.9
2017-Oct-12 15:00N 41°09' W 072°29'3 6.0
2017-Oct-12 14:30N 41°08' W 072°33'3 6.2
2017-Oct-12 13:59N 41°07' W 072°37'3 6.3
2017-Oct-12 13:30N 41°07' W 072°41'3 6.3
2017-Oct-12 13:00N 41°06' W 072°45'49 5.3
2017-Oct-12 03:41N 40°50' W 073°46'0 0.8
2017-Oct-12 03:25N 40°50' W 073°46'2 4.2
2017-Oct-12 03:00N 40°48' W 073°47'3 5.3
2017-Oct-12 02:30N 40°48' W 073°50'3 5.3
2017-Oct-12 02:00N 40°48' W 073°54'3 5.7
2017-Oct-12 01:30N 40°46' W 073°57'1 2.5
2017-Oct-12 00:59N 40°45' W 073°58'2 4.5
2017-Oct-12 00:30N 40°43' W 073°58'2 3.6
2017-Oct-12 00:00N 40°42' W 074°00'2 4.3
2017-Oct-11 23:30N 40°40' W 074°02'1 1.1
2017-Oct-11 23:00N 40°40' W 074°02'0 0.0
2017-Oct-11 22:30N 40°40' W 074°02'0 0.0
2017-Oct-11 22:00N 40°40' W 074°02'0 0.0
2017-Oct-11 21:30N 40°40' W 074°02'0 0.0
2017-Oct-11 21:00N 40°40' W 074°02'0 0.0
2017-Oct-11 20:30N 40°40' W 074°02'0 0.2
2017-Oct-11 20:00N 40°40' W 074°02'2 3.1
2017-Oct-11 19:30N 40°39' W 074°04'1 2.0
2017-Oct-11 19:00N 40°39' W 074°05'1 1.3
2017-Oct-11 18:30N 40°39' W 074°06'0 0.2
2017-Oct-11 18:00N 40°39' W 074°06'0 0.0
2017-Oct-11 17:30N 40°39' W 074°06'0 0.0
2017-Oct-11 17:00N 40°39' W 074°06'3 0.2
2017-Oct-11 00:00N 40°40' W 074°02'0 0.4
2017-Oct-10 23:30N 40°40' W 074°02'3 5.6
2017-Oct-10 23:00N 40°43' W 074°01'4 7.7
2017-Oct-10 22:30N 40°47' W 073°60'1 1.2
2017-Oct-10 22:00N 40°47' W 073°60'0 0.2
2017-Oct-10 21:30N 40°47' W 073°59'0 0.0
2017-Oct-10 21:00N 40°47' W 073°59'0 0.0
2017-Oct-10 20:30N 40°47' W 073°59'2 3.9
2017-Oct-10 20:00N 40°46' W 074°01'4 7.1
2017-Oct-10 19:31N 40°42' W 074°01'4 7.1
2017-Oct-10 19:01N 40°45' W 073°58'4 8.9
2017-Oct-10 18:31N 40°48' W 073°54'4 7.5
2017-Oct-10 18:00N 40°48' W 073°49'56 6.0
2017-Oct-10 08:33N 41°07' W 072°38'0 5.1
2017-Oct-10 08:31N 41°07' W 072°38'3 5.1
2017-Oct-10 08:00N 41°07' W 072°35'3 5.2
2017-Oct-10 07:31N 41°08' W 072°32'3 5.8
2017-Oct-10 07:01N 41°09' W 072°28'3 6.1
2017-Oct-10 06:31N 41°10' W 072°24'2 3.1
2017-Oct-10 06:01N 41°09' W 072°25'3 5.0
2017-Oct-10 05:31N 41°08' W 072°28'2 5.0
2017-Oct-10 05:01N 41°06' W 072°31'2 4.7
2017-Oct-10 04:30N 41°05' W 072°34'2 4.6
2017-Oct-10 03:59N 41°04' W 072°37'3 4.8
2017-Oct-10 03:22N 41°03' W 072°40'52 3.5
2017-Oct-09 12:17N 40°49' W 073°47'2 5.9
2017-Oct-09 11:56N 40°48' W 073°50'3 8.0
2017-Oct-09 11:30N 40°48' W 073°54'4 7.7
2017-Oct-09 11:01N 40°45' W 073°57'3 6.4
2017-Oct-09 10:31N 40°42' W 073°59'3 6.4
2017-Oct-09 10:01N 40°40' W 074°02'2 4.8
2017-Oct-09 09:31N 40°39' W 074°05'0 0.2
2017-Oct-09 09:01N 40°39' W 074°05'0 0.1
2017-Oct-09 08:31N 40°39' W 074°05'1 1.5
2017-Oct-09 08:00N 40°39' W 074°06'0 0.0
2017-Oct-09 07:30N 40°39' W 074°06'0 0.0
2017-Oct-09 07:01N 40°39' W 074°06'0 0.0
2017-Oct-09 06:30N 40°39' W 074°06'0 0.0
2017-Oct-09 06:00N 40°39' W 074°06'0 0.0
2017-Oct-09 05:31N 40°39' W 074°06'0 0.0
2017-Oct-09 05:01N 40°39' W 074°06'0 0.0
2017-Oct-09 04:30N 40°39' W 074°06'0 0.0
2017-Oct-09 04:00N 40°39' W 074°06'0 0.0
2017-Oct-09 03:31N 40°39' W 074°06'0 0.0
2017-Oct-09 03:00N 40°39' W 074°06'0 0.0
2017-Oct-09 02:31N 40°39' W 074°06'0 0.0
2017-Oct-09 02:01N 40°39' W 074°06'0 0.0
2017-Oct-09 01:31N 40°39' W 074°06'0 0.0
2017-Oct-09 01:01N 40°39' W 074°06'0 0.0
2017-Oct-09 00:31N 40°39' W 074°06'0 0.0
2017-Oct-09 00:00N 40°39' W 074°06'0 0.0
2017-Oct-08 23:31N 40°39' W 074°06'0 0.0
2017-Oct-08 23:01N 40°39' W 074°06'0 0.0
2017-Oct-08 22:31N 40°39' W 074°06'1 1.4
2017-Oct-08 22:00N 40°39' W 074°05'0 0.3
2017-Oct-08 21:31N 40°39' W 074°05'1 2.6
2017-Oct-08 21:00N 40°39' W 074°07'0 0.2
2017-Oct-08 20:30N 40°39' W 074°06'1 1.1
2017-Oct-08 20:00N 40°39' W 074°06'0 0.0
2017-Oct-08 19:30N 40°39' W 074°06'0 0.0
2017-Oct-08 19:00N 40°39' W 074°06'2 3.7
2017-Oct-08 18:30N 40°39' W 074°03'3 5.6
2017-Oct-08 18:01N 40°40' W 074°00'0 0.0
2017-Oct-08 17:31N 40°40' W 074°00'0 0.0
2017-Oct-08 17:01N 40°40' W 074°00'0 0.0
2017-Oct-08 16:30N 40°40' W 074°00'0 0.0
2017-Oct-08 16:01N 40°40' W 074°00'0 0.0
2017-Oct-08 15:30N 40°40' W 074°00'0 0.0
2017-Oct-08 15:00N 40°40' W 074°00'0 0.0
2017-Oct-08 14:30N 40°40' W 074°00'0 0.0
2017-Oct-08 14:00N 40°40' W 074°00'0 0.6
2017-Oct-08 13:30N 40°40' W 074°00'0 0.9
2017-Oct-08 13:00N 40°40' W 074°01'0 0.0
2017-Oct-08 12:30N 40°40' W 074°01'4 7.6
2017-Oct-08 12:00N 40°39' W 074°06'0 0.1
2017-Oct-08 11:30N 40°39' W 074°06'0 0.0
2017-Oct-08 11:00N 40°39' W 074°06'0 0.0
2017-Oct-08 10:29N 40°39' W 074°06'0 0.0
2017-Oct-08 10:00N 40°39' W 074°06'0 0.0
2017-Oct-08 09:30N 40°39' W 074°06'0 0.0
2017-Oct-08 09:00N 40°39' W 074°06'0 0.0
2017-Oct-08 08:31N 40°39' W 074°06'0 0.0
2017-Oct-08 08:00N 40°39' W 074°06'0 0.0
2017-Oct-08 07:30N 40°39' W 074°06'0 0.0
2017-Oct-08 07:00N 40°39' W 074°06'0 0.0
2017-Oct-08 06:30N 40°39' W 074°06'0 0.0
2017-Oct-08 06:00N 40°39' W 074°06'0 0.0
2017-Oct-08 05:30N 40°39' W 074°06'0 0.0
2017-Oct-08 05:00N 40°39' W 074°06'0 0.0
2017-Oct-08 04:30N 40°39' W 074°06'0 0.0
2017-Oct-08 04:01N 40°39' W 074°06'0 0.0
2017-Oct-08 03:30N 40°39' W 074°06'0 0.0
2017-Oct-08 03:00N 40°39' W 074°06'0 0.0
2017-Oct-08 02:30N 40°39' W 074°06'0 0.0
2017-Oct-08 02:01N 40°39' W 074°06'  

Dump ship's entire track history